Aneta, North Dakota
Current Conditions -  °F | °C
As of 12:33 PM on Sunday 23 Nov 2014 (Local Time) from KRDR Reporting Station
Overcast Overcast  
Wind Chill: 28°   Ceiling: 2300
Heat Index: 37°   Visibility: 10mi
Dew Point: 28°   Wind: 16mph
Humidity: 70%   Direction: 320°NW
Pressure: 29.42"   Gusts: 25mph
Location:  47.68°N, 97.99°W
Report Text: KRDR 231833Z AUTO 32014G22KT 10SM BKN023 BKN038 OVC050 03/M02 A2942 RMK AO2 CIG 023V050 BKN023 V SCT
Loading
Personal Weather Stations






























Interactive Weather Map New forecast layout! Learn more

10-Day Weather Forecast

Advertisements
Track Severe Weather on mobile